createdAt,value
2023-01-18T00:01:10.729Z,26.70
2023-01-18T00:03:40.704Z,28.90
2023-01-18T00:06:09.593Z,28.05
2023-01-18T00:08:38.616Z,31.40
2023-01-18T00:11:10.977Z,30.25
2023-01-18T00:13:38.298Z,26.48
2023-01-18T00:16:11.225Z,31.15
2023-01-18T00:18:37.967Z,29.10
2023-01-18T00:21:07.425Z,26.65
2023-01-18T00:23:34.744Z,24.17
2023-01-18T00:26:03.424Z,20.70
2023-01-18T00:28:30.675Z,22.33
2023-01-18T00:30:57.419Z,23.40
2023-01-18T00:33:24.395Z,20.58
2023-01-18T00:35:57.124Z,24.02
2023-01-18T00:38:23.985Z,25.48
2023-01-18T00:40:50.738Z,26.02
2023-01-18T00:43:35.538Z,25.80
2023-01-18T00:46:02.091Z,26.10
2023-01-18T00:48:28.705Z,22.90
2023-01-18T00:50:55.318Z,31.98
2023-01-18T00:53:21.904Z,27.05
2023-01-18T00:55:49.174Z,30.00
2023-01-18T00:58:15.693Z,28.55
2023-01-18T01:00:42.667Z,33.38
2023-01-18T01:03:09.437Z,36.80
2023-01-18T01:05:56.541Z,29.67
2023-01-18T01:08:23.633Z,35.17
2023-01-18T01:10:51.856Z,36.40
2023-01-18T01:13:39.957Z,39.20
2023-01-18T01:16:26.995Z,42.92
2023-01-18T01:19:12.797Z,44.63
2023-01-18T01:21:58.002Z,41.85
2023-01-18T01:24:43.774Z,37.30
2023-01-18T01:27:11.469Z,41.92
2023-01-18T01:29:38.517Z,40.15
2023-01-18T01:32:05.787Z,41.97
2023-01-18T01:34:32.509Z,39.53
2023-01-18T01:36:59.058Z,47.75
2023-01-18T01:39:25.595Z,44.13
2023-01-18T01:41:52.201Z,41.33
2023-01-18T01:44:20.006Z,38.33
2023-01-18T01:46:57.334Z,38.72
2023-01-18T01:49:32.925Z,42.55
2023-01-18T01:52:11.481Z,41.85
2023-01-18T01:54:46.113Z,42.55
2023-01-18T01:57:17.441Z,35.35
2023-01-18T01:59:50.601Z,42.35
2023-01-18T02:02:17.205Z,36.58
2023-01-18T02:04:45.195Z,36.78
2023-01-18T02:07:12.564Z,36.55
2023-01-18T02:09:39.641Z,38.50
2023-01-18T02:12:06.342Z,40.08
2023-01-18T02:14:33.031Z,40.70
2023-01-18T02:17:17.081Z,39.60
2023-01-18T02:20:25.124Z,32.53
2023-01-18T02:23:18.907Z,36.17
2023-01-18T02:25:48.069Z,35.42
2023-01-18T02:28:23.857Z,32.10
2023-01-18T02:31:13.670Z,32.97
2023-01-18T02:33:57.536Z,39.65
2023-01-18T02:36:54.847Z,32.80
2023-01-18T02:39:52.474Z,34.25
2023-01-18T02:42:40.680Z,33.85
2023-01-18T02:45:35.758Z,30.33
2023-01-18T02:48:03.346Z,41.45
2023-01-18T02:50:29.916Z,34.72
2023-01-18T02:52:56.724Z,34.20
2023-01-18T02:55:39.530Z,34.03
2023-01-18T02:58:21.801Z,38.55
2023-01-18T03:00:59.975Z,38.53
2023-01-18T03:03:27.079Z,43.40
2023-01-18T03:05:58.614Z,37.05
2023-01-18T03:08:38.676Z,33.35
2023-01-18T03:11:16.477Z,38.08
2023-01-18T03:14:11.183Z,31.38
2023-01-18T03:17:00.012Z,34.30
2023-01-18T03:19:57.129Z,32.67
2023-01-18T03:22:46.875Z,33.70
2023-01-18T03:25:17.654Z,36.53
2023-01-18T03:28:06.631Z,39.13
2023-01-18T03:30:53.254Z,35.25
2023-01-18T03:33:41.422Z,41.72
2023-01-18T03:36:12.508Z,39.63
2023-01-18T03:38:42.423Z,37.42
2023-01-18T03:41:11.350Z,40.70
2023-01-18T03:43:41.465Z,38.10
2023-01-18T03:46:08.326Z,40.55
2023-01-18T03:48:36.601Z,46.22
2023-01-18T03:51:25.902Z,39.40
2023-01-18T03:54:17.670Z,40.33
2023-01-18T03:56:52.472Z,36.70
2023-01-18T03:59:19.230Z,40.20
2023-01-18T04:01:48.066Z,45.03
2023-01-18T04:04:14.951Z,38.63
2023-01-18T04:06:41.696Z,41.15
2023-01-18T04:09:08.359Z,54.80
2023-01-18T04:11:35.017Z,45.03
2023-01-18T04:14:01.571Z,40.90
2023-01-18T04:16:28.159Z,41.97
2023-01-18T04:18:54.743Z,45.63
2023-01-18T04:21:21.277Z,48.05
2023-01-18T04:23:47.769Z,44.03
2023-01-18T04:26:16.712Z,44.05
2023-01-18T04:28:43.433Z,39.42
2023-01-18T04:31:10.052Z,41.63
2023-01-18T04:33:36.647Z,42.58
2023-01-18T04:36:04.114Z,43.30
2023-01-18T04:38:30.611Z,43.05
2023-01-18T04:41:02.745Z,42.30
2023-01-18T04:43:29.863Z,43.65
2023-01-18T04:45:57.260Z,41.45
2023-01-18T04:48:24.907Z,44.97
2023-01-18T04:50:51.588Z,48.15
2023-01-18T04:53:18.345Z,45.70
2023-01-18T04:55:45.522Z,49.58
2023-01-18T04:58:12.154Z,51.05
2023-01-18T05:00:39.970Z,80.32
2023-01-18T05:03:12.077Z,58.80
2023-01-18T05:05:39.007Z,50.60
2023-01-18T05:08:05.689Z,48.78
2023-01-18T05:10:33.583Z,53.75
2023-01-18T05:13:00.792Z,50.30
2023-01-18T05:15:27.688Z,44.03
2023-01-18T05:17:54.233Z,49.75
2023-01-18T05:20:20.831Z,46.65
2023-01-18T05:22:47.377Z,48.63
2023-01-18T05:25:13.966Z,48.83
2023-01-18T05:27:40.593Z,46.35
2023-01-18T05:30:08.835Z,48.92
2023-01-18T05:32:35.434Z,47.38
2023-01-18T05:35:03.783Z,49.25
2023-01-18T05:37:30.316Z,57.55
2023-01-18T05:39:57.281Z,50.38
2023-01-18T05:42:23.878Z,49.15
2023-01-18T05:44:50.419Z,47.35
2023-01-18T05:47:17.058Z,50.33
2023-01-18T05:49:43.534Z,56.95
2023-01-18T05:52:10.119Z,51.65
2023-01-18T05:54:36.647Z,49.47
2023-01-18T05:57:03.355Z,47.83
2023-01-18T05:59:29.856Z,51.55
2023-01-18T06:01:56.632Z,50.85
2023-01-18T06:04:23.469Z,44.15
2023-01-18T06:06:50.047Z,45.15
2023-01-18T06:09:16.648Z,46.33
2023-01-18T06:11:43.183Z,45.40
2023-01-18T06:14:09.787Z,47.30
2023-01-18T06:16:36.453Z,54.92
2023-01-18T06:19:03.065Z,47.40
2023-01-18T06:21:29.620Z,48.47
2023-01-18T06:23:56.112Z,42.85
2023-01-18T06:26:23.867Z,48.22
2023-01-18T06:28:50.467Z,49.28
2023-01-18T06:31:17.183Z,41.90
2023-01-18T06:33:44.204Z,43.80
2023-01-18T06:36:10.760Z,42.53
2023-01-18T06:38:37.362Z,50.10
2023-01-18T06:41:03.987Z,45.25
2023-01-18T06:43:30.578Z,50.80
2023-01-18T06:45:57.358Z,50.45
2023-01-18T06:48:25.158Z,56.67
2023-01-18T06:50:52.579Z,52.55
2023-01-18T06:53:22.362Z,46.15
2023-01-18T06:56:01.900Z,43.50
2023-01-18T06:58:31.042Z,43.22
2023-01-18T07:00:59.237Z,40.58
2023-01-18T07:03:27.329Z,40.33
2023-01-18T07:05:55.057Z,43.10
2023-01-18T07:08:22.118Z,37.65
2023-01-18T07:10:49.519Z,38.35
2023-01-18T07:13:15.957Z,37.38
2023-01-18T07:15:42.687Z,39.95
2023-01-18T07:18:09.349Z,37.30
2023-01-18T07:20:35.877Z,34.40
2023-01-18T07:23:02.639Z,35.22
2023-01-18T07:25:29.524Z,37.88
2023-01-18T07:27:58.982Z,37.70
2023-01-18T07:30:25.766Z,36.28
2023-01-18T07:32:53.174Z,42.45
2023-01-18T07:35:24.433Z,44.67
2023-01-18T07:37:53.041Z,38.55
2023-01-18T07:40:21.269Z,38.05
2023-01-18T07:42:49.109Z,38.50
2023-01-18T07:45:15.899Z,35.22
2023-01-18T07:47:42.776Z,43.40
2023-01-18T07:50:10.294Z,42.05
2023-01-18T07:52:36.754Z,38.92
2023-01-18T07:55:06.503Z,36.78
2023-01-18T07:57:33.185Z,39.40
2023-01-18T07:59:59.639Z,37.00
2023-01-18T08:02:26.169Z,39.85
2023-01-18T08:04:52.700Z,41.70
2023-01-18T08:07:19.888Z,37.40
2023-01-18T08:09:46.371Z,38.33
2023-01-18T08:12:17.973Z,40.85
2023-01-18T08:14:45.833Z,40.72
2023-01-18T08:17:12.463Z,41.03
2023-01-18T08:19:38.921Z,42.65
2023-01-18T08:22:05.532Z,41.58
2023-01-18T08:24:32.025Z,44.75
2023-01-18T08:26:58.595Z,43.70
2023-01-18T08:29:25.377Z,44.65
2023-01-18T08:31:52.519Z,48.28
2023-01-18T08:34:19.258Z,45.50
2023-01-18T08:36:45.835Z,41.08
2023-01-18T08:39:13.643Z,47.42
2023-01-18T08:41:41.260Z,43.60
2023-01-18T08:44:08.207Z,55.80
2023-01-18T08:46:36.190Z,53.65
2023-01-18T08:49:05.642Z,49.08
2023-01-18T08:51:32.559Z,47.88
2023-01-18T08:53:59.827Z,49.63
2023-01-18T08:56:27.243Z,49.90
2023-01-18T08:58:54.212Z,45.38
2023-01-18T09:01:23.046Z,45.97
2023-01-18T09:03:50.598Z,48.05
2023-01-18T09:06:17.454Z,45.28
2023-01-18T09:08:47.505Z,44.38
2023-01-18T09:11:14.750Z,49.35
2023-01-18T09:13:58.603Z,43.50
2023-01-18T09:16:26.227Z,39.63
2023-01-18T09:18:53.880Z,39.67
2023-01-18T09:21:21.001Z,43.00
2023-01-18T09:23:49.181Z,43.78
2023-01-18T09:26:21.067Z,44.38
2023-01-18T09:28:51.086Z,42.92
2023-01-18T09:31:18.875Z,42.30
2023-01-18T09:33:52.900Z,40.70
2023-01-18T09:36:23.699Z,44.38
2023-01-18T09:38:50.177Z,37.17
2023-01-18T09:41:33.109Z,40.50
2023-01-18T09:44:16.735Z,38.08
2023-01-18T09:46:44.450Z,39.85
2023-01-18T09:49:31.355Z,40.53
2023-01-18T09:52:27.181Z,33.22
2023-01-18T09:55:03.691Z,32.08
2023-01-18T09:57:49.954Z,28.80
2023-01-18T10:00:23.981Z,28.80
2023-01-18T10:02:57.577Z,20.55
2023-01-18T10:05:29.205Z,18.58
2023-01-18T10:08:16.440Z,17.08
2023-01-18T10:11:04.378Z,20.42
2023-01-18T10:13:42.829Z,18.60
2023-01-18T10:16:16.646Z,21.75
2023-01-18T10:18:45.820Z,19.90
2023-01-18T10:21:37.064Z,15.48
2023-01-18T10:24:20.011Z,15.70
2023-01-18T10:26:48.687Z,18.15
2023-01-18T10:29:39.788Z,17.92
2023-01-18T10:32:14.283Z,17.42
2023-01-18T10:34:51.882Z,17.25
2023-01-18T10:37:30.444Z,17.48
2023-01-18T10:40:00.751Z,16.95
2023-01-18T10:42:45.178Z,19.55
2023-01-18T10:45:20.237Z,25.80
2023-01-18T10:47:52.232Z,18.50
2023-01-18T10:50:35.826Z,18.40
2023-01-18T10:53:24.818Z,17.20
2023-01-18T10:56:03.853Z,17.52
2023-01-18T10:58:51.398Z,14.85
2023-01-18T11:01:23.943Z,14.55
2023-01-18T11:04:07.421Z,12.27
2023-01-18T11:06:53.532Z,12.82
2023-01-18T11:09:40.749Z,13.82
2023-01-18T11:12:42.522Z,11.15
2023-01-18T11:32:39.871Z,9.80
2023-01-18T11:35:09.576Z,10.88
2023-01-18T11:37:39.970Z,10.45
2023-01-18T11:40:26.907Z,9.95
2023-01-18T11:43:15.296Z,10.82
2023-01-18T11:46:00.465Z,9.43
2023-01-18T11:48:39.752Z,9.25
2023-01-18T11:51:17.310Z,12.55
2023-01-18T11:54:11.941Z,12.27
2023-01-18T11:56:45.224Z,11.23
2023-01-18T11:59:23.022Z,11.32
2023-01-18T12:02:11.385Z,10.45
2023-01-18T12:04:53.248Z,12.93
2023-01-18T12:07:57.827Z,16.83
2023-01-18T12:10:27.719Z,11.23
2023-01-18T12:13:12.583Z,11.52
2023-01-18T12:16:11.186Z,14.52
2023-01-18T12:19:15.392Z,19.95
2023-01-18T12:22:26.854Z,13.80
2023-01-18T12:25:30.879Z,12.70
2023-01-18T12:28:23.566Z,11.60
2023-01-18T12:31:17.673Z,12.18
2023-01-18T12:33:57.637Z,13.88
2023-01-18T12:37:01.776Z,11.77
2023-01-18T12:39:37.121Z,13.05
2023-01-18T12:42:09.957Z,14.23
2023-01-18T12:44:44.517Z,15.35
2023-01-18T12:47:13.767Z,14.30
2023-01-18T12:49:45.713Z,13.13
2023-01-18T12:52:19.354Z,11.82
2023-01-18T12:54:50.830Z,10.77
2023-01-18T12:57:19.669Z,12.52
2023-01-18T13:00:07.701Z,10.75
2023-01-18T13:02:39.928Z,11.52
2023-01-18T13:05:18.325Z,10.45
2023-01-18T13:08:01.405Z,11.10
2023-01-18T13:10:28.896Z,11.70
2023-01-18T13:12:57.155Z,10.98
2023-01-18T13:15:36.325Z,11.77
2023-01-18T13:18:17.021Z,13.95
2023-01-18T13:21:04.072Z,12.45
2023-01-18T13:23:40.654Z,11.45
2023-01-18T13:26:19.321Z,10.45
2023-01-18T13:28:46.330Z,12.25
2023-01-18T13:31:13.439Z,13.25
2023-01-18T13:33:47.275Z,11.32
2023-01-18T13:36:21.626Z,12.75
2023-01-18T13:38:53.534Z,12.27
2023-01-18T13:41:29.404Z,13.38
2023-01-18T13:44:01.436Z,10.85
2023-01-18T13:46:29.932Z,12.57
2023-01-18T13:49:36.153Z,12.98
2023-01-18T13:52:31.346Z,11.13
2023-01-18T13:55:04.016Z,11.80
2023-01-18T13:57:32.417Z,12.00
2023-01-18T14:00:00.140Z,10.63
2023-01-18T14:02:29.292Z,10.60
2023-01-18T14:05:19.829Z,10.52
2023-01-18T14:07:49.863Z,11.63
2023-01-18T14:10:30.396Z,11.10
2023-01-18T14:12:58.682Z,12.07
2023-01-18T14:15:30.729Z,13.02
2023-01-18T14:17:59.234Z,12.07
2023-01-18T14:20:48.465Z,11.48
2023-01-18T14:23:29.227Z,12.50
2023-01-18T14:26:03.574Z,11.48
2023-01-18T14:28:46.790Z,14.43
2023-01-18T14:31:19.647Z,11.70
2023-01-18T14:33:47.000Z,15.40
2023-01-18T14:36:39.553Z,14.60
2023-01-18T14:39:12.957Z,14.20
2023-01-18T14:41:46.039Z,14.60
2023-01-18T14:44:19.608Z,12.45
2023-01-18T14:46:51.383Z,12.38
2023-01-18T14:49:30.620Z,12.23
2023-01-18T14:51:58.998Z,15.25
2023-01-18T14:54:28.158Z,16.60
2023-01-18T14:57:04.191Z,13.05
2023-01-18T14:59:32.142Z,17.02
2023-01-18T15:02:19.726Z,19.60
2023-01-18T15:04:47.468Z,15.13
2023-01-18T15:07:19.444Z,18.80
2023-01-18T15:09:47.117Z,33.53
2023-01-18T15:12:22.559Z,18.27
2023-01-18T15:14:50.745Z,14.63
2023-01-18T15:17:22.285Z,15.50
2023-01-18T15:19:55.636Z,15.65
2023-01-18T15:22:29.322Z,15.60
2023-01-18T15:24:58.034Z,15.23
2023-01-18T15:27:25.333Z,16.60
2023-01-18T15:29:57.525Z,15.95
2023-01-18T15:32:27.567Z,20.40
2023-01-18T15:34:55.937Z,18.23
2023-01-18T15:37:26.239Z,17.70
2023-01-18T15:40:13.014Z,18.20
2023-01-18T15:42:42.950Z,18.58
2023-01-18T15:45:22.277Z,16.58
2023-01-18T15:47:52.377Z,18.55
2023-01-18T15:50:21.043Z,20.90
2023-01-18T15:53:06.198Z,19.98
2023-01-18T15:55:40.024Z,15.50
2023-01-18T15:58:34.897Z,23.35
2023-01-18T16:01:05.640Z,16.73
2023-01-18T16:03:55.512Z,18.05
2023-01-18T16:06:21.991Z,17.17
2023-01-18T16:09:16.064Z,20.70
2023-01-18T16:12:01.055Z,25.38
2023-01-18T16:14:35.968Z,19.13
2023-01-18T16:17:10.146Z,20.83
2023-01-18T16:19:46.029Z,17.10
2023-01-18T16:22:29.803Z,18.77
2023-01-18T16:25:01.320Z,16.80
2023-01-18T16:27:31.053Z,16.13
2023-01-18T16:30:00.957Z,17.42
2023-01-18T16:32:33.487Z,20.92
2023-01-18T16:35:03.545Z,15.85
2023-01-18T16:37:30.723Z,19.40
2023-01-18T16:39:57.304Z,22.67
2023-01-18T16:42:37.102Z,16.55
2023-01-18T16:45:05.111Z,20.30
2023-01-18T16:47:31.604Z,18.00
2023-01-18T16:49:59.316Z,16.40
2023-01-18T16:52:26.281Z,16.23
2023-01-18T16:54:53.360Z,17.95
2023-01-18T16:57:22.500Z,18.98
2023-01-18T16:59:49.926Z,20.95
2023-01-18T17:02:16.563Z,22.92
2023-01-18T17:04:45.345Z,19.50
2023-01-18T17:07:12.732Z,22.25
2023-01-18T17:09:47.980Z,25.77
2023-01-18T17:12:15.143Z,24.67
2023-01-18T17:14:41.650Z,21.27
2023-01-18T17:17:09.695Z,20.45
2023-01-18T17:19:37.796Z,19.92
2023-01-18T17:22:04.431Z,19.75
2023-01-18T17:24:30.947Z,17.77
2023-01-18T17:26:57.493Z,21.38
2023-01-18T17:29:24.326Z,20.80
2023-01-18T17:31:52.958Z,22.95
2023-01-18T17:34:28.194Z,25.60
2023-01-18T17:36:58.130Z,23.83
2023-01-18T17:39:32.014Z,20.25
2023-01-18T17:42:14.298Z,19.00
2023-01-18T17:44:43.426Z,24.63
2023-01-18T17:47:09.996Z,20.10
2023-01-18T17:49:36.519Z,24.25
2023-01-18T17:52:03.211Z,20.33
2023-01-18T17:54:29.724Z,19.48
2023-01-18T17:59:22.628Z,15.82
2023-01-18T18:01:49.323Z,15.90
2023-01-18T18:04:15.986Z,18.92
2023-01-18T18:06:49.747Z,17.27
2023-01-18T18:09:20.554Z,18.42
2023-01-18T18:11:47.121Z,27.20
2023-01-18T18:14:13.664Z,70.53
2023-01-18T18:16:43.497Z,26.35
2023-01-18T18:19:14.552Z,31.45
2023-01-18T18:21:47.515Z,25.50
2023-01-18T18:24:14.150Z,31.85
2023-01-18T18:26:40.718Z,24.05
2023-01-18T18:29:07.717Z,28.98
2023-01-18T18:31:34.270Z,24.75
2023-01-18T18:34:00.801Z,27.40
2023-01-18T18:36:27.961Z,21.98
2023-01-18T18:38:54.561Z,25.30
2023-01-18T18:41:21.464Z,25.92
2023-01-18T18:43:47.952Z,24.45
2023-01-18T18:46:14.899Z,28.08
2023-01-18T18:48:41.590Z,24.90
2023-01-18T18:51:08.104Z,26.80
2023-01-18T18:53:38.617Z,26.70
2023-01-18T18:56:09.430Z,29.10
2023-01-18T18:58:39.376Z,29.73
2023-01-18T19:01:08.067Z,28.33
2023-01-18T19:03:35.132Z,33.33
2023-01-18T19:06:02.830Z,41.90
2023-01-18T19:08:29.333Z,37.55
2023-01-18T19:10:57.156Z,52.47
2023-01-18T19:13:23.611Z,30.25
2023-01-18T19:15:51.246Z,37.55
2023-01-18T19:18:17.806Z,38.22
2023-01-18T19:20:44.313Z,30.35
2023-01-18T19:23:11.304Z,29.20
2023-01-18T19:25:38.759Z,26.33
2023-01-18T19:28:05.337Z,33.25
2023-01-18T19:30:33.158Z,32.25
2023-01-18T19:33:00.199Z,26.20
2023-01-18T19:35:27.014Z,35.63
2023-01-18T19:37:53.844Z,32.25
2023-01-18T19:40:20.927Z,29.08
2023-01-18T19:42:59.573Z,32.50
2023-01-18T19:45:28.613Z,30.20
2023-01-18T19:47:56.998Z,27.85
2023-01-18T19:50:23.893Z,270.17
2023-01-18T19:52:50.723Z,270.00
2023-01-18T19:55:17.193Z,59.08
2023-01-18T19:57:43.692Z,39.25
2023-01-18T20:00:10.849Z,32.13
2023-01-18T20:02:41.350Z,38.20
2023-01-18T20:05:08.747Z,29.75
2023-01-18T20:07:38.676Z,28.90
2023-01-18T20:10:06.386Z,32.92
2023-01-18T20:12:33.593Z,27.95
2023-01-18T20:15:00.296Z,28.67
2023-01-18T20:17:26.773Z,31.27
2023-01-18T20:19:54.231Z,26.08
2023-01-18T20:22:22.109Z,28.58
2023-01-18T20:24:48.619Z,27.20
2023-01-18T20:27:17.125Z,36.72
2023-01-18T20:29:44.785Z,34.72
2023-01-18T20:32:17.261Z,35.95
2023-01-18T20:34:46.435Z,24.10
2023-01-18T20:37:14.017Z,27.23
2023-01-18T20:39:40.524Z,31.60
2023-01-18T20:42:07.162Z,30.23
2023-01-18T20:44:34.277Z,31.05
2023-01-18T20:47:00.911Z,36.58
2023-01-18T20:49:36.995Z,117.72
2023-01-18T20:52:05.216Z,66.38
2023-01-18T20:54:31.690Z,36.88
2023-01-18T20:59:25.966Z,34.28
2023-01-18T21:01:53.037Z,33.88
2023-01-18T21:04:22.366Z,33.58
2023-01-18T21:06:49.768Z,37.20
2023-01-18T21:09:16.771Z,27.83
2023-01-18T21:11:43.553Z,28.75
2023-01-18T21:14:10.042Z,30.02
2023-01-18T21:16:36.668Z,25.05
2023-01-18T21:19:03.179Z,25.02
2023-01-18T21:23:58.461Z,27.42
2023-01-18T21:26:25.226Z,25.27
2023-01-18T21:28:51.715Z,28.63
2023-01-18T21:31:18.356Z,23.67
2023-01-18T21:33:44.958Z,26.50
2023-01-18T21:36:14.168Z,24.23
2023-01-18T21:38:41.286Z,30.25
2023-01-18T21:41:26.863Z,27.05
2023-01-18T21:44:12.803Z,30.13
2023-01-18T21:46:44.900Z,26.65
2023-01-18T21:49:47.460Z,32.90
2023-01-18T21:52:36.551Z,35.92
2023-01-18T21:55:03.033Z,29.60
2023-01-18T21:57:29.495Z,23.67
2023-01-18T21:59:55.998Z,34.22
2023-01-18T22:05:01.935Z,25.85
2023-01-18T22:07:30.236Z,29.38
2023-01-18T22:10:05.133Z,26.95
2023-01-18T22:12:34.902Z,31.55
2023-01-18T22:15:02.918Z,25.40
2023-01-18T22:17:29.748Z,26.63
2023-01-18T22:19:56.361Z,27.42
2023-01-18T22:22:22.908Z,23.52
2023-01-18T22:24:49.376Z,27.35
2023-01-18T22:29:42.250Z,26.02
2023-01-18T22:32:08.748Z,24.35
2023-01-18T22:34:35.190Z,26.15
2023-01-18T22:37:01.951Z,24.90
2023-01-18T22:39:28.480Z,28.85
2023-01-18T22:41:54.990Z,29.83
2023-01-18T22:44:21.445Z,30.77
2023-01-18T22:46:47.943Z,26.42
2023-01-18T22:49:14.413Z,29.27
2023-01-18T22:51:40.908Z,31.80
2023-01-18T22:54:07.453Z,31.65
2023-01-18T22:56:34.211Z,30.83
2023-01-18T22:59:00.687Z,27.33
2023-01-18T23:17:42.183Z,43.17
2023-01-18T23:20:14.892Z,54.50
2023-01-18T23:22:41.463Z,40.20
2023-01-18T23:25:08.855Z,42.60
2023-01-18T23:27:35.479Z,43.50
2023-01-18T23:30:02.601Z,45.53
2023-01-18T23:32:32.122Z,35.83
2023-01-18T23:34:59.678Z,37.80
2023-01-18T23:37:26.816Z,46.60
2023-01-18T23:40:12.054Z,34.08
2023-01-18T23:42:57.133Z,46.03
2023-01-18T23:45:42.491Z,39.58
2023-01-18T23:48:38.435Z,35.97
2023-01-18T23:51:23.629Z,43.83
2023-01-18T23:54:08.835Z,44.92
2023-01-18T23:56:35.324Z,40.03
2023-01-18T23:59:02.592Z,39.55
